Terminal Aerodrome Forecast
Issued by NWS

Home | Current Version | Previous Version | Text Only | Print | Product List | Glossary On
Versions: 1 2 3 4 5 6 7 8 9 10 11 12 13 14 15 16 17 18 19 20 21 22 23 24 25 26 27 28 29 30 31 32 33 34 35 36 37 38 39 40 41 42 43 44 45 46 47
000
FTUS42 KRAH 041736
TAFRWI
TAF
KRWI 041736Z 0418/0518 21012KT 6SM BR OVC006
     FM041900 22015G25KT P6SM FEW012 SCT035
     FM042300 21012KT P6SM FEW012
     FM050400 21010KT 3SM BR OVC004
     FM051000 23006KT 3SM -RA BR OVC004
     FM051200 01013KT 4SM -RA BR OVC005=

USA.gov is the U.S. government's official web portal to all federal, state and local government web resources and services.